sensor_id;sensor_type;location;lat;lon;timestamp;P1;durP1;ratioP1;P2;durP2;ratioP2
6519;SDS011;3293;51.690;5.982;2023-05-07T00:04:19;12.17;;;9.50;;
6519;SDS011;3293;51.690;5.982;2023-05-07T00:09:19;15.67;;;12.47;;
6519;SDS011;3293;51.690;5.982;2023-05-07T00:14:19;16.03;;;13.63;;
6519;SDS011;3293;51.690;5.982;2023-05-07T00:19:20;16.70;;;13.83;;
6519;SDS011;3293;51.690;5.982;2023-05-07T00:24:20;14.40;;;12.90;;
6519;SDS011;3293;51.690;5.982;2023-05-07T00:29:20;15.87;;;13.80;;
6519;SDS011;3293;51.690;5.982;2023-05-07T00:34:20;16.17;;;13.40;;
6519;SDS011;3293;51.690;5.982;2023-05-07T00:39:19;17.27;;;14.27;;
6519;SDS011;3293;51.690;5.982;2023-05-07T00:44:19;17.17;;;14.70;;
6519;SDS011;3293;51.690;5.982;2023-05-07T00:49:19;15.77;;;14.20;;
6519;SDS011;3293;51.690;5.982;2023-05-07T00:54:19;18.13;;;15.37;;
6519;SDS011;3293;51.690;5.982;2023-05-07T00:59:21;15.77;;;13.93;;
6519;SDS011;3293;51.690;5.982;2023-05-07T01:04:21;21.30;;;16.33;;
6519;SDS011;3293;51.690;5.982;2023-05-07T01:09:20;17.03;;;15.23;;
6519;SDS011;3293;51.690;5.982;2023-05-07T01:14:21;18.40;;;15.53;;
6519;SDS011;3293;51.690;5.982;2023-05-07T01:19:22;20.53;;;18.30;;
6519;SDS011;3293;51.690;5.982;2023-05-07T01:24:21;18.40;;;16.50;;
6519;SDS011;3293;51.690;5.982;2023-05-07T01:29:22;20.20;;;18.07;;
6519;SDS011;3293;51.690;5.982;2023-05-07T01:34:21;20.37;;;18.10;;
6519;SDS011;3293;51.690;5.982;2023-05-07T01:39:27;22.47;;;19.80;;
6519;SDS011;3293;51.690;5.982;2023-05-07T01:44:28;19.67;;;17.67;;
6519;SDS011;3293;51.690;5.982;2023-05-07T01:49:29;21.33;;;18.33;;
6519;SDS011;3293;51.690;5.982;2023-05-07T01:54:29;23.43;;;19.93;;
6519;SDS011;3293;51.690;5.982;2023-05-07T01:59:30;21.37;;;19.03;;
6519;SDS011;3293;51.690;5.982;2023-05-07T02:04:29;24.13;;;21.63;;
6519;SDS011;3293;51.690;5.982;2023-05-07T02:09:29;24.00;;;21.40;;
6519;SDS011;3293;51.690;5.982;2023-05-07T02:14:29;25.10;;;22.37;;
6519;SDS011;3293;51.690;5.982;2023-05-07T02:19:29;23.67;;;20.63;;
6519;SDS011;3293;51.690;5.982;2023-05-07T02:24:29;26.37;;;21.00;;
6519;SDS011;3293;51.690;5.982;2023-05-07T02:29:29;23.73;;;21.20;;
6519;SDS011;3293;51.690;5.982;2023-05-07T02:34:29;24.43;;;22.03;;
6519;SDS011;3293;51.690;5.982;2023-05-07T02:39:29;24.00;;;21.33;;
6519;SDS011;3293;51.690;5.982;2023-05-07T02:44:29;23.60;;;21.10;;
6519;SDS011;3293;51.690;5.982;2023-05-07T02:49:30;23.93;;;21.40;;
6519;SDS011;3293;51.690;5.982;2023-05-07T02:54:30;23.57;;;21.17;;
6519;SDS011;3293;51.690;5.982;2023-05-07T02:59:30;25.20;;;22.60;;
6519;SDS011;3293;51.690;5.982;2023-05-07T03:04:30;23.73;;;21.23;;
6519;SDS011;3293;51.690;5.982;2023-05-07T03:09:30;25.70;;;22.90;;
6519;SDS011;3293;51.690;5.982;2023-05-07T03:14:30;26.60;;;22.93;;
6519;SDS011;3293;51.690;5.982;2023-05-07T03:19:30;26.63;;;23.50;;
6519;SDS011;3293;51.690;5.982;2023-05-07T03:24:30;27.03;;;24.23;;
6519;SDS011;3293;51.690;5.982;2023-05-07T03:29:30;29.67;;;24.87;;
6519;SDS011;3293;51.690;5.982;2023-05-07T03:34:30;30.93;;;26.00;;
6519;SDS011;3293;51.690;5.982;2023-05-07T03:39:30;28.03;;;25.07;;
6519;SDS011;3293;51.690;5.982;2023-05-07T03:44:31;29.93;;;26.73;;
6519;SDS011;3293;51.690;5.982;2023-05-07T03:49:31;29.27;;;25.37;;
6519;SDS011;3293;51.690;5.982;2023-05-07T03:54:31;28.23;;;25.30;;
6519;SDS011;3293;51.690;5.982;2023-05-07T03:59:31;28.47;;;23.83;;
6519;SDS011;3293;51.690;5.982;2023-05-07T04:04:31;26.47;;;23.67;;
6519;SDS011;3293;51.690;5.982;2023-05-07T04:09:32;29.87;;;26.40;;
6519;SDS011;3293;51.690;5.982;2023-05-07T04:14:32;26.83;;;24.03;;
6519;SDS011;3293;51.690;5.982;2023-05-07T04:19:33;27.37;;;24.37;;
6519;SDS011;3293;51.690;5.982;2023-05-07T04:24:33;29.23;;;25.50;;
6519;SDS011;3293;51.690;5.982;2023-05-07T04:29:33;26.60;;;23.80;;
6519;SDS011;3293;51.690;5.982;2023-05-07T04:34:32;27.33;;;24.37;;
6519;SDS011;3293;51.690;5.982;2023-05-07T04:39:32;27.27;;;24.03;;
6519;SDS011;3293;51.690;5.982;2023-05-07T04:44:34;27.87;;;24.70;;
6519;SDS011;3293;51.690;5.982;2023-05-07T04:49:36;28.13;;;24.53;;
6519;SDS011;3293;51.690;5.982;2023-05-07T04:54:37;25.63;;;23.00;;
6519;SDS011;3293;51.690;5.982;2023-05-07T04:59:37;26.47;;;23.63;;
6519;SDS011;3293;51.690;5.982;2023-05-07T05:04:37;25.33;;;22.63;;
6519;SDS011;3293;51.690;5.982;2023-05-07T05:09:36;24.67;;;22.07;;
6519;SDS011;3293;51.690;5.982;2023-05-07T05:14:36;25.53;;;22.83;;
6519;SDS011;3293;51.690;5.982;2023-05-07T05:19:36;25.80;;;22.67;;
6519;SDS011;3293;51.690;5.982;2023-05-07T05:24:36;26.10;;;22.60;;
6519;SDS011;3293;51.690;5.982;2023-05-07T05:29:36;26.20;;;23.10;;
6519;SDS011;3293;51.690;5.982;2023-05-07T05:34:36;24.87;;;22.17;;
6519;SDS011;3293;51.690;5.982;2023-05-07T05:39:36;24.57;;;22.03;;
6519;SDS011;3293;51.690;5.982;2023-05-07T05:44:36;22.70;;;20.40;;
6519;SDS011;3293;51.690;5.982;2023-05-07T05:49:36;22.93;;;20.50;;
6519;SDS011;3293;51.690;5.982;2023-05-07T05:54:36;23.40;;;18.70;;
6519;SDS011;3293;51.690;5.982;2023-05-07T05:59:36;20.13;;;17.47;;
6519;SDS011;3293;51.690;5.982;2023-05-07T06:04:36;18.27;;;16.47;;
6519;SDS011;3293;51.690;5.982;2023-05-07T06:09:36;17.83;;;15.88;;
6519;SDS011;3293;51.690;5.982;2023-05-07T06:14:36;17.77;;;15.98;;
6519;SDS011;3293;51.690;5.982;2023-05-07T06:19:35;19.30;;;17.20;;
6519;SDS011;3293;51.690;5.982;2023-05-07T06:24:35;19.10;;;17.10;;
6519;SDS011;3293;51.690;5.982;2023-05-07T06:29:35;21.23;;;17.77;;
6519;SDS011;3293;51.690;5.982;2023-05-07T06:34:35;21.00;;;17.83;;
6519;SDS011;3293;51.690;5.982;2023-05-07T06:39:36;18.10;;;16.25;;
6519;SDS011;3293;51.690;5.982;2023-05-07T06:44:36;17.75;;;15.95;;
6519;SDS011;3293;51.690;5.982;2023-05-07T06:49:36;16.92;;;15.18;;
6519;SDS011;3293;51.690;5.982;2023-05-07T06:54:35;16.10;;;14.50;;
6519;SDS011;3293;51.690;5.982;2023-05-07T06:59:35;18.20;;;15.65;;
6519;SDS011;3293;51.690;5.982;2023-05-07T07:04:35;15.73;;;14.15;;
6519;SDS011;3293;51.690;5.982;2023-05-07T07:09:35;15.57;;;13.85;;
6519;SDS011;3293;51.690;5.982;2023-05-07T07:14:35;13.82;;;12.35;;
6519;SDS011;3293;51.690;5.982;2023-05-07T07:19:35;14.02;;;12.55;;
6519;SDS011;3293;51.690;5.982;2023-05-07T07:24:35;14.90;;;11.25;;
6519;SDS011;3293;51.690;5.982;2023-05-07T07:29:35;13.00;;;11.57;;
6519;SDS011;3293;51.690;5.982;2023-05-07T07:34:35;11.93;;;10.73;;
6519;SDS011;3293;51.690;5.982;2023-05-07T07:39:35;11.93;;;10.73;;
6519;SDS011;3293;51.690;5.982;2023-05-07T07:44:36;12.38;;;10.98;;
6519;SDS011;3293;51.690;5.982;2023-05-07T07:49:38;11.50;;;10.40;;
6519;SDS011;3293;51.690;5.982;2023-05-07T07:54:39;12.48;;;11.18;;
6519;SDS011;3293;51.690;5.982;2023-05-07T07:59:39;12.90;;;10.63;;
6519;SDS011;3293;51.690;5.982;2023-05-07T08:04:39;10.80;;;9.70;;
6519;SDS011;3293;51.690;5.982;2023-05-07T08:09:40;10.60;;;9.60;;
6519;SDS011;3293;51.690;5.982;2023-05-07T08:14:40;10.45;;;9.40;;
6519;SDS011;3293;51.690;5.982;2023-05-07T08:19:40;9.80;;;8.80;;
6519;SDS011;3293;51.690;5.982;2023-05-07T08:24:40;10.45;;;9.45;;
6519;SDS011;3293;51.690;5.982;2023-05-07T08:29:40;11.75;;;8.73;;
6519;SDS011;3293;51.690;5.982;2023-05-07T08:34:40;10.30;;;9.27;;
6519;SDS011;3293;51.690;5.982;2023-05-07T08:39:40;10.55;;;9.35;;
6519;SDS011;3293;51.690;5.982;2023-05-07T08:44:40;11.98;;;8.35;;
6519;SDS011;3293;51.690;5.982;2023-05-07T08:49:45;10.98;;;8.25;;
6519;SDS011;3293;51.690;5.982;2023-05-07T08:54:45;8.65;;;7.03;;
6519;SDS011;3293;51.690;5.982;2023-05-07T08:59:45;7.35;;;6.57;;
6519;SDS011;3293;51.690;5.982;2023-05-07T09:04:45;7.63;;;6.93;;
6519;SDS011;3293;51.690;5.982;2023-05-07T09:09:45;9.95;;;7.40;;
6519;SDS011;3293;51.690;5.982;2023-05-07T09:14:45;7.75;;;6.38;;
6519;SDS011;3293;51.690;5.982;2023-05-07T09:19:46;7.70;;;6.68;;
6519;SDS011;3293;51.690;5.982;2023-05-07T09:24:50;8.50;;;7.32;;
6519;SDS011;3293;51.690;5.982;2023-05-07T09:29:51;10.13;;;7.10;;
6519;SDS011;3293;51.690;5.982;2023-05-07T09:34:51;10.05;;;6.82;;
6519;SDS011;3293;51.690;5.982;2023-05-07T09:39:51;9.50;;;7.47;;
6519;SDS011;3293;51.690;5.982;2023-05-07T09:44:51;9.70;;;7.20;;
6519;SDS011;3293;51.690;5.982;2023-05-07T09:49:52;8.98;;;7.63;;
6519;SDS011;3293;51.690;5.982;2023-05-07T09:54:55;9.95;;;7.05;;
6519;SDS011;3293;51.690;5.982;2023-05-07T09:59:58;7.00;;;6.30;;
6519;SDS011;3293;51.690;5.982;2023-05-07T10:05:01;8.27;;;6.47;;
6519;SDS011;3293;51.690;5.982;2023-05-07T10:10:02;7.43;;;6.60;;
6519;SDS011;3293;51.690;5.982;2023-05-07T10:15:05;8.82;;;6.90;;
6519;SDS011;3293;51.690;5.982;2023-05-07T10:20:07;8.60;;;7.22;;
6519;SDS011;3293;51.690;5.982;2023-05-07T10:25:41;7.00;;;5.50;;
6519;SDS011;3293;51.690;5.982;2023-05-07T10:30:54;9.82;;;6.53;;
6519;SDS011;3293;51.690;5.982;2023-05-07T10:35:59;6.80;;;6.13;;
6519;SDS011;3293;51.690;5.982;2023-05-07T10:41:03;9.77;;;6.32;;
6519;SDS011;3293;51.690;5.982;2023-05-07T10:46:14;6.82;;;5.90;;
6519;SDS011;3293;51.690;5.982;2023-05-07T10:51:19;6.65;;;5.63;;
6519;SDS011;3293;51.690;5.982;2023-05-07T11:12:09;5.97;;;4.05;;
6519;SDS011;3293;51.690;5.982;2023-05-07T11:17:09;5.78;;;4.78;;
6519;SDS011;3293;51.690;5.982;2023-05-07T11:27:32;5.25;;;4.75;;
6519;SDS011;3293;51.690;5.982;2023-05-07T11:32:32;5.00;;;4.50;;
6519;SDS011;3293;51.690;5.982;2023-05-07T11:37:32;5.00;;;4.13;;
6519;SDS011;3293;51.690;5.982;2023-05-07T11:42:33;7.60;;;4.65;;
6519;SDS011;3293;51.690;5.982;2023-05-07T11:47:35;4.93;;;3.83;;
6519;SDS011;3293;51.690;5.982;2023-05-07T11:52:35;6.60;;;4.03;;
6519;SDS011;3293;51.690;5.982;2023-05-07T11:57:35;5.82;;;3.95;;
6519;SDS011;3293;51.690;5.982;2023-05-07T12:02:34;4.97;;;4.00;;
6519;SDS011;3293;51.690;5.982;2023-05-07T12:07:35;4.65;;;3.58;;
6519;SDS011;3293;51.690;5.982;2023-05-07T12:12:39;7.07;;;3.90;;
6519;SDS011;3293;51.690;5.982;2023-05-07T12:17:40;5.00;;;3.30;;
6519;SDS011;3293;51.690;5.982;2023-05-07T12:22:40;5.53;;;3.38;;
6519;SDS011;3293;51.690;5.982;2023-05-07T12:27:41;7.32;;;3.50;;
6519;SDS011;3293;51.690;5.982;2023-05-07T12:32:41;4.55;;;3.03;;
6519;SDS011;3293;51.690;5.982;2023-05-07T12:37:40;3.53;;;2.72;;
6519;SDS011;3293;51.690;5.982;2023-05-07T12:42:40;4.45;;;3.08;;
6519;SDS011;3293;51.690;5.982;2023-05-07T12:47:45;3.13;;;2.65;;
6519;SDS011;3293;51.690;5.982;2023-05-07T12:52:45;2.92;;;2.63;;
6519;SDS011;3293;51.690;5.982;2023-05-07T12:57:50;3.33;;;2.92;;
6519;SDS011;3293;51.690;5.982;2023-05-07T13:02:52;3.90;;;2.50;;
6519;SDS011;3293;51.690;5.982;2023-05-07T13:07:54;3.00;;;2.70;;
6519;SDS011;3293;51.690;5.982;2023-05-07T13:12:54;3.80;;;2.90;;
6519;SDS011;3293;51.690;5.982;2023-05-07T13:17:54;3.85;;;2.72;;
6519;SDS011;3293;51.690;5.982;2023-05-07T13:22:54;5.85;;;3.30;;
6519;SDS011;3293;51.690;5.982;2023-05-07T13:27:54;5.18;;;3.92;;
6519;SDS011;3293;51.690;5.982;2023-05-07T13:32:55;4.63;;;3.90;;
6519;SDS011;3293;51.690;5.982;2023-05-07T13:37:55;5.47;;;3.42;;
6519;SDS011;3293;51.690;5.982;2023-05-07T13:42:56;6.18;;;3.90;;
6519;SDS011;3293;51.690;5.982;2023-05-07T13:47:57;4.65;;;3.70;;
6519;SDS011;3293;51.690;5.982;2023-05-07T13:52:57;5.53;;;4.03;;
6519;SDS011;3293;51.690;5.982;2023-05-07T13:57:58;4.85;;;3.85;;
6519;SDS011;3293;51.690;5.982;2023-05-07T14:02:59;5.50;;;4.35;;
6519;SDS011;3293;51.690;5.982;2023-05-07T14:07:59;6.20;;;4.40;;
6519;SDS011;3293;51.690;5.982;2023-05-07T14:12:59;7.45;;;4.10;;
6519;SDS011;3293;51.690;5.982;2023-05-07T14:17:59;4.88;;;4.40;;
6519;SDS011;3293;51.690;5.982;2023-05-07T14:22:59;4.38;;;3.50;;
6519;SDS011;3293;51.690;5.982;2023-05-07T14:28:00;2.22;;;2.00;;
6519;SDS011;3293;51.690;5.982;2023-05-07T14:32:59;4.38;;;2.10;;
6519;SDS011;3293;51.690;5.982;2023-05-07T14:37:59;4.07;;;2.28;;
6519;SDS011;3293;51.690;5.982;2023-05-07T14:42:59;2.45;;;2.10;;
6519;SDS011;3293;51.690;5.982;2023-05-07T14:47:59;2.80;;;2.60;;
6519;SDS011;3293;51.690;5.982;2023-05-07T14:52:59;4.30;;;3.22;;
6519;SDS011;3293;51.690;5.982;2023-05-07T14:57:59;4.43;;;2.97;;
6519;SDS011;3293;51.690;5.982;2023-05-07T15:03:06;4.82;;;3.20;;
6519;SDS011;3293;51.690;5.982;2023-05-07T15:08:07;4.00;;;3.42;;
6519;SDS011;3293;51.690;5.982;2023-05-07T15:13:07;3.85;;;3.05;;
6519;SDS011;3293;51.690;5.982;2023-05-07T15:18:08;3.45;;;2.80;;
6519;SDS011;3293;51.690;5.982;2023-05-07T15:23:08;4.97;;;2.80;;
6519;SDS011;3293;51.690;5.982;2023-05-07T15:28:14;3.90;;;2.83;;
6519;SDS011;3293;51.690;5.982;2023-05-07T15:33:14;4.35;;;2.72;;
6519;SDS011;3293;51.690;5.982;2023-05-07T15:38:14;4.88;;;2.65;;
6519;SDS011;3293;51.690;5.982;2023-05-07T15:43:15;5.40;;;2.80;;
6519;SDS011;3293;51.690;5.982;2023-05-07T15:48:14;3.38;;;2.50;;
6519;SDS011;3293;51.690;5.982;2023-05-07T15:53:14;3.08;;;2.78;;
6519;SDS011;3293;51.690;5.982;2023-05-07T15:58:14;4.68;;;3.35;;
6519;SDS011;3293;51.690;5.982;2023-05-07T16:03:18;2.58;;;2.38;;
6519;SDS011;3293;51.690;5.982;2023-05-07T16:08:20;3.33;;;2.40;;
6519;SDS011;3293;51.690;5.982;2023-05-07T16:13:20;4.68;;;2.95;;
6519;SDS011;3293;51.690;5.982;2023-05-07T16:18:20;3.00;;;2.67;;
6519;SDS011;3293;51.690;5.982;2023-05-07T16:23:20;13.43;;;7.00;;
6519;SDS011;3293;51.690;5.982;2023-05-07T16:28:21;5.32;;;3.75;;
6519;SDS011;3293;51.690;5.982;2023-05-07T16:33:21;11.50;;;6.50;;
6519;SDS011;3293;51.690;5.982;2023-05-07T16:38:22;5.18;;;3.97;;
6519;SDS011;3293;51.690;5.982;2023-05-07T16:43:22;4.90;;;3.60;;
6519;SDS011;3293;51.690;5.982;2023-05-07T16:48:22;4.18;;;3.80;;
6519;SDS011;3293;51.690;5.982;2023-05-07T16:53:21;3.20;;;2.90;;
6519;SDS011;3293;51.690;5.982;2023-05-07T16:58:22;4.72;;;3.22;;
6519;SDS011;3293;51.690;5.982;2023-05-07T17:03:22;3.53;;;2.97;;
6519;SDS011;3293;51.690;5.982;2023-05-07T17:08:22;3.65;;;2.92;;
6519;SDS011;3293;51.690;5.982;2023-05-07T17:13:22;3.13;;;2.92;;
6519;SDS011;3293;51.690;5.982;2023-05-07T17:18:22;3.38;;;3.08;;
6519;SDS011;3293;51.690;5.982;2023-05-07T17:23:22;6.22;;;3.47;;
6519;SDS011;3293;51.690;5.982;2023-05-07T17:28:22;4.50;;;3.65;;
6519;SDS011;3293;51.690;5.982;2023-05-07T17:33:22;3.55;;;3.30;;
6519;SDS011;3293;51.690;5.982;2023-05-07T17:38:21;3.88;;;3.25;;
6519;SDS011;3293;51.690;5.982;2023-05-07T17:43:21;4.15;;;3.72;;
6519;SDS011;3293;51.690;5.982;2023-05-07T17:48:22;5.57;;;3.78;;
6519;SDS011;3293;51.690;5.982;2023-05-07T17:53:22;5.47;;;4.30;;
6519;SDS011;3293;51.690;5.982;2023-05-07T17:58:22;4.60;;;4.25;;
6519;SDS011;3293;51.690;5.982;2023-05-07T18:03:24;4.90;;;4.40;;
6519;SDS011;3293;51.690;5.982;2023-05-07T18:08:26;6.05;;;3.92;;
6519;SDS011;3293;51.690;5.982;2023-05-07T18:13:26;5.05;;;4.10;;
6519;SDS011;3293;51.690;5.982;2023-05-07T18:18:26;4.00;;;3.67;;
6519;SDS011;3293;51.690;5.982;2023-05-07T18:23:29;5.30;;;4.60;;
6519;SDS011;3293;51.690;5.982;2023-05-07T18:28:29;5.45;;;4.50;;
6519;SDS011;3293;51.690;5.982;2023-05-07T18:33:28;5.40;;;5.00;;
6519;SDS011;3293;51.690;5.982;2023-05-07T18:38:29;6.25;;;5.72;;
6519;SDS011;3293;51.690;5.982;2023-05-07T18:43:28;6.25;;;5.47;;
6519;SDS011;3293;51.690;5.982;2023-05-07T18:48:28;6.13;;;5.53;;
6519;SDS011;3293;51.690;5.982;2023-05-07T18:53:29;6.10;;;5.50;;
6519;SDS011;3293;51.690;5.982;2023-05-07T18:58:29;7.25;;;6.10;;
6519;SDS011;3293;51.690;5.982;2023-05-07T19:03:28;7.20;;;5.95;;
6519;SDS011;3293;51.690;5.982;2023-05-07T19:08:28;6.77;;;6.17;;
6519;SDS011;3293;51.690;5.982;2023-05-07T19:13:28;7.17;;;6.57;;
6519;SDS011;3293;51.690;5.982;2023-05-07T19:18:28;7.65;;;6.95;;
6519;SDS011;3293;51.690;5.982;2023-05-07T19:23:30;8.55;;;7.72;;
6519;SDS011;3293;51.690;5.982;2023-05-07T19:28:31;11.13;;;8.10;;
6519;SDS011;3293;51.690;5.982;2023-05-07T19:33:31;9.10;;;8.23;;
6519;SDS011;3293;51.690;5.982;2023-05-07T19:38:31;9.73;;;8.48;;
6519;SDS011;3293;51.690;5.982;2023-05-07T19:43:31;9.57;;;8.15;;
6519;SDS011;3293;51.690;5.982;2023-05-07T19:48:36;9.82;;;8.93;;
6519;SDS011;3293;51.690;5.982;2023-05-07T19:53:36;9.30;;;8.50;;
6519;SDS011;3293;51.690;5.982;2023-05-07T19:58:37;10.77;;;9.77;;
6519;SDS011;3293;51.690;5.982;2023-05-07T20:03:38;10.95;;;9.85;;
6519;SDS011;3293;51.690;5.982;2023-05-07T20:08:38;10.63;;;9.52;;
6519;SDS011;3293;51.690;5.982;2023-05-07T20:13:38;14.43;;;11.90;;
6519;SDS011;3293;51.690;5.982;2023-05-07T20:18:38;12.93;;;11.17;;
6519;SDS011;3293;51.690;5.982;2023-05-07T20:23:38;11.87;;;10.77;;
6519;SDS011;3293;51.690;5.982;2023-05-07T20:28:38;11.55;;;10.55;;
6519;SDS011;3293;51.690;5.982;2023-05-07T20:33:38;12.93;;;11.10;;
6519;SDS011;3293;51.690;5.982;2023-05-07T20:38:39;13.57;;;11.32;;
6519;SDS011;3293;51.690;5.982;2023-05-07T20:43:39;15.33;;;13.20;;
6519;SDS011;3293;51.690;5.982;2023-05-07T20:48:40;13.90;;;12.60;;
6519;SDS011;3293;51.690;5.982;2023-05-07T20:53:41;14.10;;;12.60;;
6519;SDS011;3293;51.690;5.982;2023-05-07T20:58:42;13.87;;;12.57;;
6519;SDS011;3293;51.690;5.982;2023-05-07T21:03:42;14.13;;;12.83;;
6519;SDS011;3293;51.690;5.982;2023-05-07T21:08:43;13.90;;;12.50;;
6519;SDS011;3293;51.690;5.982;2023-05-07T21:13:43;13.77;;;12.47;;
6519;SDS011;3293;51.690;5.982;2023-05-07T21:18:44;15.20;;;13.67;;
6519;SDS011;3293;51.690;5.982;2023-05-07T21:23:44;16.37;;;14.50;;
6519;SDS011;3293;51.690;5.982;2023-05-07T21:28:44;16.83;;;15.23;;
6519;SDS011;3293;51.690;5.982;2023-05-07T21:33:44;19.30;;;16.10;;
6519;SDS011;3293;51.690;5.982;2023-05-07T21:38:44;18.50;;;16.67;;
6519;SDS011;3293;51.690;5.982;2023-05-07T21:43:44;18.27;;;16.33;;
6519;SDS011;3293;51.690;5.982;2023-05-07T21:48:44;19.47;;;17.53;;
6519;SDS011;3293;51.690;5.982;2023-05-07T21:53:44;19.47;;;17.47;;
6519;SDS011;3293;51.690;5.982;2023-05-07T21:58:44;19.43;;;16.70;;
6519;SDS011;3293;51.690;5.982;2023-05-07T22:03:44;19.60;;;16.87;;
6519;SDS011;3293;51.690;5.982;2023-05-07T22:08:44;19.07;;;17.07;;
6519;SDS011;3293;51.690;5.982;2023-05-07T22:13:45;20.03;;;18.03;;
6519;SDS011;3293;51.690;5.982;2023-05-07T22:18:46;25.70;;;20.03;;
6519;SDS011;3293;51.690;5.982;2023-05-07T22:23:48;19.50;;;17.53;;
6519;SDS011;3293;51.690;5.982;2023-05-07T22:28:48;22.27;;;19.97;;
6519;SDS011;3293;51.690;5.982;2023-05-07T22:33:48;22.67;;;19.80;;
6519;SDS011;3293;51.690;5.982;2023-05-07T22:38:48;21.37;;;18.40;;
6519;SDS011;3293;51.690;5.982;2023-05-07T22:43:49;18.87;;;16.90;;
6519;SDS011;3293;51.690;5.982;2023-05-07T22:48:49;21.03;;;18.80;;
6519;SDS011;3293;51.690;5.982;2023-05-07T22:53:49;20.80;;;17.97;;
6519;SDS011;3293;51.690;5.982;2023-05-07T22:58:52;22.23;;;19.40;;
6519;SDS011;3293;51.690;5.982;2023-05-07T23:03:52;19.90;;;17.77;;
6519;SDS011;3293;51.690;5.982;2023-05-07T23:08:53;22.53;;;18.80;;
6519;SDS011;3293;51.690;5.982;2023-05-07T23:13:54;25.33;;;19.27;;
6519;SDS011;3293;51.690;5.982;2023-05-07T23:18:56;20.43;;;18.33;;
6519;SDS011;3293;51.690;5.982;2023-05-07T23:24:11;22.33;;;20.03;;
6519;SDS011;3293;51.690;5.982;2023-05-07T23:29:11;23.43;;;20.93;;
6519;SDS011;3293;51.690;5.982;2023-05-07T23:34:22;18.87;;;16.40;;
6519;SDS011;3293;51.690;5.982;2023-05-07T23:39:23;19.37;;;17.27;;
6519;SDS011;3293;51.690;5.982;2023-05-07T23:44:24;18.00;;;15.80;;
6519;SDS011;3293;51.690;5.982;2023-05-07T23:49:39;22.53;;;17.57;;
6519;SDS011;3293;51.690;5.982;2023-05-07T23:54:39;18.67;;;16.77;;
6519;SDS011;3293;51.690;5.982;2023-05-07T23:59:43;18.77;;;16.87;;
